Time;durP1;ratioP1;P1;durP2;ratioP2;P2;SDS_P1;SDS_P2;PMS_P1;PMS_P2;Temp;Humidity;BMP_temperature;BMP_pressure;BME280_temperature;BME280_humidity;BME280_pressure;Samples;Min_cycle;Max_cycle;Signal;HPM_P1;HPM_P2
2023/08/15 00:00:03;;;;;;;8.20;6.20;;;;;;;;;;5111284;28;20393;-65
2023/08/15 00:02:29;;;;;;;11.07;6.35;;;;;;;;;;5111418;28;20054;-65
2023/08/15 00:04:56;;;;;;;13.30;6.65;;;;;;;;;;5111598;28;20039;-65
2023/08/15 00:07:22;;;;;;;8.50;6.53;;;;;;;;;;5111179;28;20118;-65
2023/08/15 00:09:48;;;;;;;8.05;6.18;;;;;;;;;;5111449;28;20040;-65
2023/08/15 00:12:14;;;;;;;10.90;6.63;;;;;;;;;;5111371;28;20040;-65
2023/08/15 00:14:40;;;;;;;10.38;6.80;;;;;;;;;;5110971;28;20047;-66
2023/08/15 00:17:06;;;;;;;11.95;7.80;;;;;;;;;;5111587;28;20039;-65
2023/08/15 00:19:32;;;;;;;7.75;6.55;;;;;;;;;;5110773;28;20092;-65
2023/08/15 00:21:58;;;;;;;9.20;7.45;;;;;;;;;;5111014;28;20048;-65
2023/08/15 00:24:24;;;;;;;12.95;7.30;;;;;;;;;;5111245;28;20046;-65
2023/08/15 00:26:50;;;;;;;11.88;7.55;;;;;;;;;;5111018;28;20058;-65
2023/08/15 00:29:16;;;;;;;8.07;7.15;;;;;;;;;;5110811;28;20071;-65
2023/08/15 00:31:42;;;;;;;10.50;7.32;;;;;;;;;;5111224;28;20032;-65
2023/08/15 00:34:08;;;;;;;20.23;7.97;;;;;;;;;;5111083;28;20032;-65
2023/08/15 00:36:34;;;;;;;9.80;7.93;;;;;;;;;;5110693;28;20394;-65
2023/08/15 00:39:02;;;;;;;10.95;8.20;;;;;;;;;;5144328;27;20046;-65
2023/08/15 00:41:29;;;;;;;12.10;7.50;;;;;;;;;;5111333;28;20119;-65
2023/08/15 00:43:56;;;;;;;13.20;7.35;;;;;;;;;;5110439;28;20059;-65
2023/08/15 00:46:23;;;;;;;13.13;7.35;;;;;;;;;;5111026;28;20522;-65
2023/08/15 00:48:50;;;;;;;13.93;7.60;;;;;;;;;;5111002;28;20039;-65
2023/08/15 00:51:16;;;;;;;11.65;7.68;;;;;;;;;;5110413;28;20093;-65
2023/08/15 00:53:43;;;;;;;13.50;8.45;;;;;;;;;;5110993;28;20039;-65
2023/08/15 00:56:09;;;;;;;12.85;8.77;;;;;;;;;;5111058;28;20043;-65
2023/08/15 00:58:35;;;;;;;11.57;8.73;;;;;;;;;;5110780;28;20505;-65
2023/08/15 01:01:02;;;;;;;12.93;8.98;;;;;;;;;;5111197;28;20118;-65
2023/08/15 01:03:28;;;;;;;12.73;8.55;;;;;;;;;;5111235;28;20040;-65
2023/08/15 01:05:54;;;;;;;13.63;9.20;;;;;;;;;;5110541;28;20380;-65
2023/08/15 01:08:20;;;;;;;12.07;9.15;;;;;;;;;;5110859;28;20042;-65
2023/08/15 01:10:47;;;;;;;13.57;9.13;;;;;;;;;;5111123;28;20408;-65
2023/08/15 01:13:12;;;;;;;11.90;9.68;;;;;;;;;;5110508;28;20044;-65
2023/08/15 01:15:41;;;;;;;12.25;9.63;;;;;;;;;;5110677;28;20039;-65
2023/08/15 01:18:10;;;;;;;13.02;9.52;;;;;;;;;;5110590;28;20135;-65
2023/08/15 01:20:36;;;;;;;14.07;10.20;;;;;;;;;;5110828;28;20046;-65
2023/08/15 01:23:06;;;;;;;12.02;9.32;;;;;;;;;;5110157;28;20047;-65
2023/08/15 01:25:32;;;;;;;13.32;9.88;;;;;;;;;;5110679;28;20040;-65
2023/08/15 01:28:01;;;;;;;13.68;10.05;;;;;;;;;;5143516;27;20039;-65
2023/08/15 01:30:27;;;;;;;11.82;10.13;;;;;;;;;;5110629;28;20039;-65
2023/08/15 01:32:56;;;;;;;10.80;9.20;;;;;;;;;;5114201;28;20362;-65
2023/08/15 01:35:29;;;;;;;12.93;9.98;;;;;;;;;;5114261;28;20111;-65
2023/08/15 01:37:59;;;;;;;12.23;10.07;;;;;;;;;;5114343;28;20039;-65
2023/08/15 01:40:26;;;;;;;15.15;10.77;;;;;;;;;;5114495;28;20397;-65
2023/08/15 01:42:55;;;;;;;18.73;12.00;;;;;;;;;;5114191;28;20040;-65
2023/08/15 01:45:23;;;;;;;12.82;10.60;;;;;;;;;;5114297;28;20039;-65
2023/08/15 01:47:50;;;;;;;14.38;10.57;;;;;;;;;;5114338;28;20071;-65
2023/08/15 01:50:16;;;;;;;14.90;10.52;;;;;;;;;;5114142;28;20032;-65
2023/08/15 01:52:42;;;;;;;14.82;9.93;;;;;;;;;;5114055;28;20075;-65
2023/08/15 01:55:08;;;;;;;18.67;11.40;;;;;;;;;;5114192;28;20458;-66
2023/08/15 01:57:34;;;;;;;15.85;10.40;;;;;;;;;;5114116;28;20043;-65
2023/08/15 02:00:00;;;;;;;15.77;10.15;;;;;;;;;;5113651;28;20070;-65
2023/08/15 02:02:26;;;;;;;13.48;9.90;;;;;;;;;;5114043;28;20115;-65
2023/08/15 02:04:52;;;;;;;19.70;10.93;;;;;;;;;;5113642;28;20177;-65
2023/08/15 02:07:18;;;;;;;17.17;10.45;;;;;;;;;;5113537;28;20080;-65
2023/08/15 02:09:44;;;;;;;16.98;10.50;;;;;;;;;;5113750;28;20035;-65
2023/08/15 02:12:10;;;;;;;14.30;10.30;;;;;;;;;;5113576;28;20035;-65
2023/08/15 02:14:36;;;;;;;15.23;10.27;;;;;;;;;;5113192;28;20039;-65
2023/08/15 02:17:02;;;;;;;17.58;11.13;;;;;;;;;;5113675;28;20043;-65
2023/08/15 02:19:28;;;;;;;15.82;11.10;;;;;;;;;;5113732;28;20027;-65
2023/08/15 02:21:54;;;;;;;17.95;10.52;;;;;;;;;;5113306;28;20122;-65
2023/08/15 02:24:20;;;;;;;14.48;12.18;;;;;;;;;;5113603;28;20035;-65
2023/08/15 02:26:46;;;;;;;17.10;11.05;;;;;;;;;;5113227;28;20035;-65
2023/08/15 02:29:15;;;;;;;13.93;11.02;;;;;;;;;;5112869;28;20233;-65
2023/08/15 02:31:44;;;;;;;15.00;11.45;;;;;;;;;;5113578;28;20050;-65
2023/08/15 02:34:10;;;;;;;15.27;12.23;;;;;;;;;;5113281;28;20075;-65
2023/08/15 02:36:36;;;;;;;18.13;11.55;;;;;;;;;;5112925;28;20100;-65
2023/08/15 02:39:03;;;;;;;17.55;12.65;;;;;;;;;;5113253;28;20489;-65
2023/08/15 02:41:29;;;;;;;15.63;11.80;;;;;;;;;;5113246;28;20538;-65
2023/08/15 02:43:55;;;;;;;18.65;12.02;;;;;;;;;;5112165;28;20047;-65
2023/08/15 02:46:22;;;;;;;17.60;12.40;;;;;;;;;;5113135;28;20039;-65
2023/08/15 02:48:48;;;;;;;16.58;12.20;;;;;;;;;;5113181;28;20039;-65
2023/08/15 02:51:14;;;;;;;16.50;13.15;;;;;;;;;;5112817;28;20507;-65
2023/08/15 02:53:40;;;;;;;16.10;13.20;;;;;;;;;;5113002;28;20050;-65
2023/08/15 02:56:06;;;;;;;19.80;14.07;;;;;;;;;;5112932;28;20087;-65
2023/08/15 02:58:32;;;;;;;22.50;15.13;;;;;;;;;;5112581;28;20040;-65
2023/08/15 03:00:58;;;;;;;19.27;14.13;;;;;;;;;;5112887;28;20044;-65
2023/08/15 03:03:25;;;;;;;18.45;13.32;;;;;;;;;;5112417;28;20079;-65
2023/08/15 03:05:51;;;;;;;20.77;14.55;;;;;;;;;;5112422;28;20058;-65
2023/08/15 03:08:17;;;;;;;22.70;15.30;;;;;;;;;;5112515;28;20081;-65
2023/08/15 03:10:43;;;;;;;16.92;13.95;;;;;;;;;;5112948;28;20466;-65
2023/08/15 03:13:09;;;;;;;25.63;17.25;;;;;;;;;;5111802;28;20098;-65
2023/08/15 03:15:37;;;;;;;21.63;15.68;;;;;;;;;;5112497;28;20071;-65
2023/08/15 03:18:03;;;;;;;20.17;14.98;;;;;;;;;;5112596;28;20530;-65
2023/08/15 03:20:29;;;;;;;23.05;16.38;;;;;;;;;;5112232;28;20042;-65
2023/08/15 03:22:55;;;;;;;21.35;17.05;;;;;;;;;;5112550;28;20039;-65
2023/08/15 03:25:21;;;;;;;25.45;16.98;;;;;;;;;;5112449;28;20040;-65
2023/08/15 03:27:48;;;;;;;23.50;17.25;;;;;;;;;;5112015;28;20039;-65
2023/08/15 03:30:14;;;;;;;19.92;14.95;;;;;;;;;;5112374;28;20389;-65
2023/08/15 03:32:40;;;;;;;25.90;16.30;;;;;;;;;;5112366;28;20427;-65
2023/08/15 03:35:06;;;;;;;20.88;16.25;;;;;;;;;;5111717;28;20169;-65
2023/08/15 03:37:32;;;;;;;28.20;17.33;;;;;;;;;;5112102;28;20090;-65
2023/08/15 03:39:58;;;;;;;23.10;16.58;;;;;;;;;;5112107;28;20093;-65
2023/08/15 03:42:24;;;;;;;22.23;16.23;;;;;;;;;;5111847;28;20473;-65
2023/08/15 03:44:50;;;;;;;22.20;15.70;;;;;;;;;;5112017;28;20082;-65
2023/08/15 03:47:16;;;;;;;25.70;16.50;;;;;;;;;;5112146;28;20032;-65
2023/08/15 03:49:42;;;;;;;23.92;17.00;;;;;;;;;;5111633;28;20043;-65
2023/08/15 03:52:08;;;;;;;21.75;17.48;;;;;;;;;;5112010;28;20080;-65
2023/08/15 03:54:34;;;;;;;28.02;16.85;;;;;;;;;;5110673;28;20036;-65
2023/08/15 03:57:00;;;;;;;23.45;16.30;;;;;;;;;;5111587;28;20118;-65
2023/08/15 03:59:26;;;;;;;23.70;15.90;;;;;;;;;;5111953;28;20169;-65
2023/08/15 04:01:52;;;;;;;22.30;16.10;;;;;;;;;;5144993;27;20085;-65
2023/08/15 04:04:18;;;;;;;22.85;16.60;;;;;;;;;;5111574;28;20043;-65
2023/08/15 04:06:45;;;;;;;23.13;16.33;;;;;;;;;;5111730;28;20039;-65
2023/08/15 04:09:11;;;;;;;22.17;15.77;;;;;;;;;;5111725;28;20040;-65
2023/08/15 04:11:37;;;;;;;23.00;14.98;;;;;;;;;;5111391;28;20460;-65
2023/08/15 04:14:03;;;;;;;18.23;14.70;;;;;;;;;;5111363;28;20055;-65
2023/08/15 04:16:29;;;;;;;19.02;14.90;;;;;;;;;;5112278;28;20150;-65
2023/08/15 04:18:55;;;;;;;24.92;15.38;;;;;;;;;;5111676;28;20557;-65
2023/08/15 04:21:21;;;;;;;21.35;15.73;;;;;;;;;;5112060;28;20088;-65
2023/08/15 04:23:47;;;;;;;26.20;16.60;;;;;;;;;;5111896;28;20051;-65
2023/08/15 04:26:13;;;;;;;24.83;15.32;;;;;;;;;;5111299;28;20638;-65
2023/08/15 04:28:40;;;;;;;24.48;16.00;;;;;;;;;;5111542;28;20118;-65
2023/08/15 04:31:06;;;;;;;20.80;15.27;;;;;;;;;;5111615;28;20036;-65
2023/08/15 04:33:32;;;;;;;19.73;14.10;;;;;;;;;;5111259;28;20496;-65
2023/08/15 04:35:58;;;;;;;21.90;14.48;;;;;;;;;;5111569;28;20031;-65
2023/08/15 04:38:24;;;;;;;17.95;14.07;;;;;;;;;;5111447;28;20491;-65
2023/08/15 04:40:50;;;;;;;23.40;15.23;;;;;;;;;;5111341;28;20035;-65
2023/08/15 04:43:16;;;;;;;32.00;20.00;;;;;;;;;;5111647;28;20031;-65
2023/08/15 04:45:43;;;;;;;20.73;15.07;;;;;;;;;;5111459;28;20059;-65
2023/08/15 04:48:10;;;;;;;18.80;13.73;;;;;;;;;;5111189;28;20366;-65
2023/08/15 04:50:36;;;;;;;19.42;11.68;;;;;;;;;;5111823;28;20533;-65
2023/08/15 04:53:02;;;;;;;18.25;11.43;;;;;;;;;;5111430;28;20054;-65
2023/08/15 04:55:28;;;;;;;16.30;11.48;;;;;;;;;;5111243;28;20044;-65
2023/08/15 04:57:54;;;;;;;18.52;12.05;;;;;;;;;;5110996;28;20096;-65
2023/08/15 05:00:20;;;;;;;18.67;12.63;;;;;;;;;;5111342;28;20044;-65
2023/08/15 05:02:47;;;;;;;22.52;12.77;;;;;;;;;;5110786;28;20130;-65
2023/08/15 05:05:13;;;;;;;16.13;10.90;;;;;;;;;;5110992;28;20077;-65
2023/08/15 05:07:40;;;;;;;20.85;12.45;;;;;;;;;;5115297;28;20031;-65
2023/08/15 05:10:06;;;;;;;16.60;12.18;;;;;;;;;;5114779;28;20040;-65
2023/08/15 05:12:32;;;;;;;16.95;11.07;;;;;;;;;;5115018;28;20079;-65
2023/08/15 05:14:58;;;;;;;16.20;11.82;;;;;;;;;;5115261;28;20044;-65
2023/08/15 05:17:24;;;;;;;17.98;11.85;;;;;;;;;;5115280;28;20501;-65
2023/08/15 05:19:50;;;;;;;16.95;11.02;;;;;;;;;;5114815;28;20122;-65
2023/08/15 05:22:16;;;;;;;16.10;10.43;;;;;;;;;;5115218;28;20077;-65
2023/08/15 05:24:42;;;;;;;16.48;11.35;;;;;;;;;;5114886;28;20393;-65
2023/08/15 05:27:12;;;;;;;16.40;10.85;;;;;;;;;;5114798;28;20035;-65
2023/08/15 05:29:40;;;;;;;16.75;11.10;;;;;;;;;;5115099;28;20047;-65
2023/08/15 05:32:06;;;;;;;18.38;10.23;;;;;;;;;;5115120;28;20035;-65
2023/08/15 05:34:32;;;;;;;12.40;10.23;;;;;;;;;;5114341;28;20104;-65
2023/08/15 05:36:58;;;;;;;18.45;10.27;;;;;;;;;;5114655;28;20099;-65
2023/08/15 05:39:24;;;;;;;15.20;9.60;;;;;;;;;;5114623;28;20036;-65
2023/08/15 05:41:50;;;;;;;13.13;9.70;;;;;;;;;;5114063;28;20567;-65
2023/08/15 05:44:16;;;;;;;12.25;8.50;;;;;;;;;;5147474;27;20040;-65
2023/08/15 05:46:42;;;;;;;14.82;9.52;;;;;;;;;;5114385;28;20092;-65
2023/08/15 05:49:08;;;;;;;15.32;9.73;;;;;;;;;;5113880;28;20034;-65
2023/08/15 05:51:34;;;;;;;12.35;8.88;;;;;;;;;;5114357;28;20404;-65
2023/08/15 05:54:00;;;;;;;13.30;7.95;;;;;;;;;;5114266;28;20042;-65
2023/08/15 05:56:26;;;;;;;14.55;8.50;;;;;;;;;;5114077;28;20118;-65
2023/08/15 05:58:52;;;;;;;13.50;8.60;;;;;;;;;;5114686;28;20050;-65
2023/08/15 06:01:21;;;;;;;14.55;8.07;;;;;;;;;;5114335;28;20043;-65
2023/08/15 06:03:47;;;;;;;13.73;8.75;;;;;;;;;;5113986;28;20051;-65
2023/08/15 06:06:13;;;;;;;12.65;7.35;;;;;;;;;;5114396;28;20152;-65
2023/08/15 06:08:39;;;;;;;13.20;7.85;;;;;;;;;;5103761;28;20032;-65
2023/08/15 06:11:06;;;;;;;12.80;8.38;;;;;;;;;;5103675;28;20043;-68
2023/08/15 06:13:32;;;;;;;11.25;7.28;;;;;;;;;;5126580;27;20051;-68
2023/08/15 06:15:58;;;;;;;14.90;7.95;;;;;;;;;;5129780;27;20050;-67
2023/08/15 06:18:25;;;;;;;13.10;7.45;;;;;;;;;;5112523;28;20465;-68
2023/08/15 06:20:51;;;;;;;13.38;6.95;;;;;;;;;;5120769;27;20043;-66
2023/08/15 06:23:17;;;;;;;11.13;7.47;;;;;;;;;;5128674;27;20065;-66
2023/08/15 06:25:43;;;;;;;14.63;7.07;;;;;;;;;;5112883;27;20804;-64
2023/08/15 06:28:09;;;;;;;11.57;6.32;;;;;;;;;;5115895;27;20382;-66
2023/08/15 06:30:35;;;;;;;11.50;6.05;;;;;;;;;;5134107;27;20031;-66
2023/08/15 06:33:01;;;;;;;18.77;6.57;;;;;;;;;;5133179;27;20678;-66
2023/08/15 06:35:28;;;;;;;15.00;6.13;;;;;;;;;;5133337;27;20114;-66
2023/08/15 06:37:55;;;;;;;10.48;5.13;;;;;;;;;;5133946;27;20550;-66
2023/08/15 06:40:21;;;;;;;10.68;5.20;;;;;;;;;;5133083;27;20091;-66
2023/08/15 06:42:47;;;;;;;15.10;5.70;;;;;;;;;;5133874;27;20077;-66
2023/08/15 06:45:16;;;;;;;15.75;5.85;;;;;;;;;;5123848;27;20052;-66
2023/08/15 06:47:42;;;;;;;14.57;4.95;;;;;;;;;;5116775;27;20049;-67
2023/08/15 06:50:08;;;;;;;13.25;4.93;;;;;;;;;;5133478;27;20420;-65
2023/08/15 06:52:34;;;;;;;14.43;5.90;;;;;;;;;;5133226;27;20043;-66
2023/08/15 06:55:03;;;;;;;10.30;4.50;;;;;;;;;;5132711;27;20056;-66
2023/08/15 06:57:31;;;;;;;11.15;4.75;;;;;;;;;;5133308;27;20043;-66
2023/08/15 06:59:57;;;;;;;11.60;5.05;;;;;;;;;;5124564;27;20118;-66
2023/08/15 07:02:23;;;;;;;11.82;4.30;;;;;;;;;;5131822;27;20047;-65
2023/08/15 07:04:50;;;;;;;10.05;3.88;;;;;;;;;;5132764;27;20095;-65
2023/08/15 07:07:17;;;;;;;11.18;4.20;;;;;;;;;;5132982;27;20497;-65
2023/08/15 07:09:43;;;;;;;12.30;4.15;;;;;;;;;;5124510;27;20100;-66
2023/08/15 07:12:10;;;;;;;12.52;4.25;;;;;;;;;;5132917;27;20047;-64
2023/08/15 07:14:36;;;;;;;10.82;3.80;;;;;;;;;;5112375;27;20412;-64
2023/08/15 07:17:02;;;;;;;12.38;3.92;;;;;;;;;;5129938;27;20504;-65
2023/08/15 07:19:28;;;;;;;12.35;4.32;;;;;;;;;;5132430;27;20052;-64
2023/08/15 07:21:54;;;;;;;12.38;4.45;;;;;;;;;;5132997;27;20043;-64
2023/08/15 07:24:21;;;;;;;13.63;4.13;;;;;;;;;;5132216;27;20043;-65
2023/08/15 07:26:47;;;;;;;13.25;4.30;;;;;;;;;;5116686;27;20039;-64
2023/08/15 07:29:13;;;;;;;12.80;5.07;;;;;;;;;;5131508;27;20064;-64
2023/08/15 07:31:39;;;;;;;11.13;3.80;;;;;;;;;;5126244;27;20127;-65
2023/08/15 07:34:05;;;;;;;12.50;4.50;;;;;;;;;;5127528;27;20043;-65
2023/08/15 07:36:31;;;;;;;13.20;4.35;;;;;;;;;;5122731;27;20553;-67
2023/08/15 07:38:57;;;;;;;10.80;4.10;;;;;;;;;;5132834;27;20039;-66
2023/08/15 07:41:23;;;;;;;13.23;3.97;;;;;;;;;;5132227;27;20412;-66
2023/08/15 07:43:49;;;;;;;11.15;3.88;;;;;;;;;;5132647;27;20495;-66
2023/08/15 07:46:15;;;;;;;8.27;3.20;;;;;;;;;;5132023;27;20035;-66
2023/08/15 07:48:42;;;;;;;10.32;3.95;;;;;;;;;;5132758;27;20471;-66
2023/08/15 07:51:08;;;;;;;9.77;3.67;;;;;;;;;;5132423;27;20463;-66
2023/08/15 07:53:34;;;;;;;12.52;4.15;;;;;;;;;;5125745;27;20044;-66
2023/08/15 07:56:01;;;;;;;11.07;3.67;;;;;;;;;;5118920;27;20492;-66
2023/08/15 07:58:27;;;;;;;7.15;3.70;;;;;;;;;;5124608;27;20130;-66
2023/08/15 08:00:53;;;;;;;12.07;4.25;;;;;;;;;;5131402;27;20063;-65
2023/08/15 08:03:19;;;;;;;12.35;4.80;;;;;;;;;;5131798;27;20095;-66
2023/08/15 08:05:45;;;;;;;8.77;4.25;;;;;;;;;;5121664;27;20035;-66
2023/08/15 08:08:13;;;;;;;10.90;4.47;;;;;;;;;;5111152;28;20032;-65
2023/08/15 08:10:40;;;;;;;10.40;4.13;;;;;;;;;;5115443;27;20043;-65
2023/08/15 08:13:06;;;;;;;10.98;4.00;;;;;;;;;;5126043;27;20126;-64
2023/08/15 08:15:34;;;;;;;9.30;3.90;;;;;;;;;;5110331;28;20039;-63
2023/08/15 08:18:00;;;;;;;10.13;4.20;;;;;;;;;;5111071;28;20413;-63
2023/08/15 08:20:26;;;;;;;11.90;3.97;;;;;;;;;;5111415;28;20041;-65
2023/08/15 08:22:52;;;;;;;12.13;3.97;;;;;;;;;;5110490;28;20039;-64
2023/08/15 08:25:19;;;;;;;16.63;4.07;;;;;;;;;;5110843;28;20043;-63
2023/08/15 08:27:46;;;;;;;8.50;3.85;;;;;;;;;;5110627;28;20040;-64
2023/08/15 08:30:16;;;;;;;7.55;4.03;;;;;;;;;;5110477;28;20046;-64
2023/08/15 08:32:43;;;;;;;11.07;3.85;;;;;;;;;;5111248;28;20485;-64
2023/08/15 08:35:10;;;;;;;11.50;4.03;;;;;;;;;;5111005;28;20170;-63
2023/08/15 08:37:36;;;;;;;10.88;4.32;;;;;;;;;;5119376;28;20047;-63
2023/08/15 08:40:04;;;;;;;9.60;4.35;;;;;;;;;;5131339;27;20047;-64
2023/08/15 08:42:30;;;;;;;15.23;4.78;;;;;;;;;;5131167;27;20444;-65
2023/08/15 08:44:56;;;;;;;9.45;3.92;;;;;;;;;;5131098;27;20043;-64
2023/08/15 08:47:26;;;;;;;9.10;4.53;;;;;;;;;;5131470;27;20042;-64
2023/08/15 08:49:53;;;;;;;8.77;4.72;;;;;;;;;;5124410;27;20537;-63
2023/08/15 08:52:19;;;;;;;9.13;3.80;;;;;;;;;;5110860;28;20032;-64
2023/08/15 08:54:46;;;;;;;11.25;5.03;;;;;;;;;;5110517;28;20505;-64
2023/08/15 08:57:12;;;;;;;10.05;4.15;;;;;;;;;;5110557;28;20088;-63
2023/08/15 08:59:40;;;;;;;9.02;3.67;;;;;;;;;;5110672;28;20495;-63
2023/08/15 09:02:10;;;;;;;9.32;3.80;;;;;;;;;;5110836;28;20042;-63
2023/08/15 09:04:36;;;;;;;8.68;3.85;;;;;;;;;;5109939;28;20043;-63
2023/08/15 09:07:02;;;;;;;10.38;4.25;;;;;;;;;;5109919;28;20043;-63
2023/08/15 09:09:28;;;;;;;7.85;3.22;;;;;;;;;;5105851;28;20040;-63
2023/08/15 09:11:54;;;;;;;9.98;3.67;;;;;;;;;;5110353;28;20031;-63
2023/08/15 09:14:20;;;;;;;7.07;3.67;;;;;;;;;;5109344;28;20060;-63
2023/08/15 09:16:48;;;;;;;9.75;4.03;;;;;;;;;;5107079;28;20042;-64
2023/08/15 09:19:15;;;;;;;10.25;3.25;;;;;;;;;;5111693;28;20047;-64
2023/08/15 09:21:41;;;;;;;6.18;3.50;;;;;;;;;;5114309;28;20458;-64
2023/08/15 09:24:07;;;;;;;10.30;3.40;;;;;;;;;;5130928;27;20043;-63
2023/08/15 09:26:34;;;;;;;7.97;4.00;;;;;;;;;;5127499;27;20046;-63
2023/08/15 09:29:00;;;;;;;6.70;2.95;;;;;;;;;;5130756;27;20380;-64
2023/08/15 09:31:26;;;;;;;8.18;3.10;;;;;;;;;;5130803;27;20039;-65
2023/08/15 09:33:52;;;;;;;6.53;2.95;;;;;;;;;;5130609;27;20035;-66
2023/08/15 09:36:19;;;;;;;8.00;3.55;;;;;;;;;;5130655;27;20058;-65
2023/08/15 09:38:44;;;;;;;5.70;2.88;;;;;;;;;;5130191;27;20446;-64
2023/08/15 09:41:14;;;;;;;6.80;3.33;;;;;;;;;;5130984;27;20051;-65
2023/08/15 09:43:50;;;;;;;9.50;4.03;;;;;;;;;;5130696;27;20162;-64
2023/08/15 09:46:17;;;;;;;11.20;5.22;;;;;;;;;;5129991;27;20035;-65
2023/08/15 09:48:46;;;;;;;11.40;4.50;;;;;;;;;;5131128;27;20061;-66
2023/08/15 09:51:13;;;;;;;8.52;4.85;;;;;;;;;;5130800;27;20084;-66
2023/08/15 09:53:42;;;;;;;10.85;5.18;;;;;;;;;;5132205;27;20070;-66
2023/08/15 09:56:08;;;;;;;7.78;3.90;;;;;;;;;;5134323;27;20042;-65
2023/08/15 09:58:34;;;;;;;7.47;3.80;;;;;;;;;;5126441;27;20074;-65
2023/08/15 10:01:01;;;;;;;12.07;4.13;;;;;;;;;;5114794;27;20046;-65
2023/08/15 10:03:46;;;;;;;7.82;3.60;;;;;;;;;;5125015;27;20050;-64
2023/08/15 10:06:13;;;;;;;7.63;3.20;;;;;;;;;;5120313;27;20152;-65
2023/08/15 10:08:39;;;;;;;5.32;3.20;;;;;;;;;;5123545;27;20039;-66
2023/08/15 10:11:09;;;;;;;5.38;2.70;;;;;;;;;;5132542;27;20114;-66
2023/08/15 10:13:38;;;;;;;6.88;2.83;;;;;;;;;;5126028;27;20043;-65
2023/08/15 10:16:05;;;;;;;13.23;3.20;;;;;;;;;;5133826;27;20047;-65
2023/08/15 10:18:32;;;;;;;8.32;3.17;;;;;;;;;;5130863;27;20039;-66
2023/08/15 10:20:58;;;;;;;8.20;3.38;;;;;;;;;;5133707;27;20044;-65
2023/08/15 10:23:28;;;;;;;8.15;3.00;;;;;;;;;;5133373;27;20043;-65
2023/08/15 10:25:55;;;;;;;6.82;2.72;;;;;;;;;;5129175;27;20074;-65
2023/08/15 10:28:21;;;;;;;7.35;2.70;;;;;;;;;;5133346;27;20039;-64
2023/08/15 10:30:47;;;;;;;8.15;3.05;;;;;;;;;;5126473;27;20118;-65
2023/08/15 10:33:14;;;;;;;6.80;2.20;;;;;;;;;;5133582;27;20047;-64
2023/08/15 10:35:57;;;;;;;8.07;2.83;;;;;;;;;;5132677;27;20074;-65
2023/08/15 10:38:27;;;;;;;10.25;3.42;;;;;;;;;;5133161;27;20039;-64
2023/08/15 10:40:54;;;;;;;5.45;2.72;;;;;;;;;;5133852;27;20075;-64
2023/08/15 10:43:24;;;;;;;6.03;2.90;;;;;;;;;;5133096;27;20070;-64
2023/08/15 10:45:52;;;;;;;7.03;2.70;;;;;;;;;;5132770;27;20043;-64
2023/08/15 10:48:37;;;;;;;4.38;2.15;;;;;;;;;;5132452;27;20042;-64
2023/08/15 10:51:03;;;;;;;7.75;2.47;;;;;;;;;;5131620;27;20088;-64
2023/08/15 10:53:29;;;;;;;5.55;2.58;;;;;;;;;;5133472;27;20035;-64
2023/08/15 10:55:56;;;;;;;8.88;2.60;;;;;;;;;;5133599;27;20037;-64
2023/08/15 10:58:22;;;;;;;5.97;2.10;;;;;;;;;;5120494;27;20039;-65
2023/08/15 11:00:49;;;;;;;4.38;2.10;;;;;;;;;;5113160;28;20047;-66
2023/08/15 11:03:15;;;;;;;6.10;2.28;;;;;;;;;;5131253;27;20496;-65
2023/08/15 11:05:42;;;;;;;10.45;2.40;;;;;;;;;;5132652;27;20560;-65
2023/08/15 11:08:15;;;;;;;7.50;2.85;;;;;;;;;;5126977;27;20055;-65
2023/08/15 11:10:48;;;;;;;15.10;3.50;;;;;;;;;;5126317;27;20469;-66
2023/08/15 11:13:15;;;;;;;9.20;3.20;;;;;;;;;;5130006;27;20058;-65
2023/08/15 11:15:41;;;;;;;9.35;3.30;;;;;;;;;;5112347;28;20041;-65
2023/08/15 11:18:08;;;;;;;7.70;2.80;;;;;;;;;;5112732;28;20043;-66
2023/08/15 11:20:34;;;;;;;8.85;3.40;;;;;;;;;;5112205;28;20425;-66
2023/08/15 11:23:00;;;;;;;9.48;2.90;;;;;;;;;;5128503;27;20050;-66
2023/08/15 11:25:26;;;;;;;9.45;2.83;;;;;;;;;;5128896;27;20040;-66
2023/08/15 11:27:52;;;;;;;8.30;3.20;;;;;;;;;;5132426;27;20054;-66
2023/08/15 11:30:18;;;;;;;6.43;3.35;;;;;;;;;;5132900;27;20046;-66
2023/08/15 11:32:44;;;;;;;8.70;3.03;;;;;;;;;;5133082;27;20043;-66
2023/08/15 11:35:11;;;;;;;5.05;2.17;;;;;;;;;;5113635;27;20043;-65
2023/08/15 11:37:38;;;;;;;6.80;2.33;;;;;;;;;;5112011;28;20474;-66
2023/08/15 11:40:05;;;;;;;11.65;3.30;;;;;;;;;;5112304;28;20047;-65
2023/08/15 11:42:33;;;;;;;6.28;2.83;;;;;;;;;;5111860;28;20135;-65
2023/08/15 11:45:02;;;;;;;9.10;2.67;;;;;;;;;;5111062;28;20116;-66
2023/08/15 11:48:01;;;;;;;8.90;2.70;;;;;;;;;;5111310;28;20046;-66
2023/08/15 11:50:28;;;;;;;6.53;2.38;;;;;;;;;;5065994;27;20043;-65
2023/08/15 11:52:55;;;;;;;7.38;2.28;;;;;;;;;;5131997;27;20050;-66
2023/08/15 11:55:24;;;;;;;6.47;2.60;;;;;;;;;;5132221;27;20698;-65
2023/08/15 11:57:50;;;;;;;5.00;2.05;;;;;;;;;;5131748;27;20045;-65
2023/08/15 12:00:19;;;;;;;9.45;2.88;;;;;;;;;;5127743;27;20050;-66
2023/08/15 12:02:46;;;;;;;6.28;2.65;;;;;;;;;;5124011;27;20066;-66
2023/08/15 12:05:16;;;;;;;7.55;3.60;;;;;;;;;;5131656;27;20139;-66
2023/08/15 12:07:42;;;;;;;9.90;3.30;;;;;;;;;;5129530;27;20038;-66
2023/08/15 12:10:12;;;;;;;8.48;3.30;;;;;;;;;;5118927;27;20035;-65
2023/08/15 12:12:47;;;;;;;6.60;3.20;;;;;;;;;;5131311;27;20039;-65
2023/08/15 12:15:15;;;;;;;7.55;3.25;;;;;;;;;;5131018;27;20140;-65
2023/08/15 12:17:41;;;;;;;7.82;3.05;;;;;;;;;;5127491;27;20513;-65
2023/08/15 12:20:09;;;;;;;7.07;2.97;;;;;;;;;;5109355;28;20047;-64
2023/08/15 12:22:35;;;;;;;13.60;3.78;;;;;;;;;;5108684;27;20047;-65
2023/08/15 12:25:01;;;;;;;9.00;3.38;;;;;;;;;;5124051;27;20043;-64
2023/08/15 12:27:28;;;;;;;6.78;3.35;;;;;;;;;;5110421;28;20042;-65
2023/08/15 12:29:54;;;;;;;7.00;3.67;;;;;;;;;;5111103;28;20071;-64
2023/08/15 12:32:20;;;;;;;9.38;3.60;;;;;;;;;;5111332;28;20043;-64
2023/08/15 12:34:46;;;;;;;9.07;4.22;;;;;;;;;;5107789;28;20630;-65
2023/08/15 12:37:12;;;;;;;8.02;3.75;;;;;;;;;;5111271;28;20127;-64
2023/08/15 12:39:38;;;;;;;8.25;3.83;;;;;;;;;;5105672;28;20584;-66
2023/08/15 12:42:06;;;;;;;7.47;4.55;;;;;;;;;;5121707;28;20043;-66
2023/08/15 12:44:32;;;;;;;11.00;4.43;;;;;;;;;;5131429;27;20042;-67
2023/08/15 12:46:58;;;;;;;8.52;3.92;;;;;;;;;;5111294;27;20042;-66
2023/08/15 12:49:24;;;;;;;8.20;4.00;;;;;;;;;;5116112;28;20050;-66
2023/08/15 12:51:50;;;;;;;7.68;4.10;;;;;;;;;;5131441;27;20688;-66
2023/08/15 12:54:17;;;;;;;7.28;3.75;;;;;;;;;;5131048;27;20473;-66
2023/08/15 12:56:43;;;;;;;9.70;3.75;;;;;;;;;;5130965;27;20712;-66
2023/08/15 12:59:09;;;;;;;8.93;3.95;;;;;;;;;;5131266;27;20448;-66
2023/08/15 13:01:35;;;;;;;5.72;3.08;;;;;;;;;;5127870;27;20047;-66
2023/08/15 13:04:01;;;;;;;8.32;4.40;;;;;;;;;;5127544;27;20087;-67
2023/08/15 13:06:27;;;;;;;8.23;4.18;;;;;;;;;;5130656;27;20086;-67
2023/08/15 13:08:53;;;;;;;9.30;3.13;;;;;;;;;;5118821;27;20088;-66
2023/08/15 13:11:19;;;;;;;5.75;3.30;;;;;;;;;;5130348;27;20122;-66
2023/08/15 13:13:45;;;;;;;8.05;3.78;;;;;;;;;;5130210;27;20558;-67
2023/08/15 13:16:11;;;;;;;7.28;4.03;;;;;;;;;;5130549;27;20107;-67
2023/08/15 13:18:37;;;;;;;7.32;3.25;;;;;;;;;;5130127;27;20062;-66
2023/08/15 13:21:03;;;;;;;4.57;3.13;;;;;;;;;;5129641;28;20038;-68
2023/08/15 13:23:29;;;;;;;5.63;3.30;;;;;;;;;;5130618;27;20386;-67
2023/08/15 13:25:56;;;;;;;7.47;3.30;;;;;;;;;;5124378;27;20051;-66
2023/08/15 13:28:22;;;;;;;9.57;4.05;;;;;;;;;;5133859;27;20478;-65
2023/08/15 13:30:48;;;;;;;6.65;3.33;;;;;;;;;;5134373;27;20057;-67
2023/08/15 13:33:14;;;;;;;8.50;3.30;;;;;;;;;;5130777;27;20050;-66
2023/08/15 13:35:40;;;;;;;5.03;2.85;;;;;;;;;;5132601;27;20051;-67
2023/08/15 13:38:06;;;;;;;5.10;2.50;;;;;;;;;;5129966;27;20522;-68
2023/08/15 13:40:32;;;;;;;4.95;2.05;;;;;;;;;;5112650;28;20616;-67
2023/08/15 13:42:59;;;;;;;3.30;1.58;;;;;;;;;;5113337;28;20075;-65
2023/08/15 13:45:25;;;;;;;3.45;1.80;;;;;;;;;;5116694;27;20526;-65
2023/08/15 13:47:51;;;;;;;4.47;1.20;;;;;;;;;;5114721;27;20130;-66
2023/08/15 13:50:17;;;;;;;3.85;1.75;;;;;;;;;;5113412;28;20118;-66
2023/08/15 13:52:43;;;;;;;3.42;2.10;;;;;;;;;;5113594;28;20032;-65
2023/08/15 13:55:12;;;;;;;4.55;2.20;;;;;;;;;;5118319;27;20039;-65
2023/08/15 13:57:38;;;;;;;4.00;2.20;;;;;;;;;;5117439;27;20047;-66
2023/08/15 14:00:06;;;;;;;5.20;2.60;;;;;;;;;;5132492;27;20088;-66
2023/08/15 14:02:32;;;;;;;3.88;2.25;;;;;;;;;;5132313;27;20497;-67
2023/08/15 14:04:58;;;;;;;4.45;2.70;;;;;;;;;;5112930;28;20039;-66
2023/08/15 14:07:24;;;;;;;3.55;2.28;;;;;;;;;;5129802;27;20130;-66
2023/08/15 14:09:50;;;;;;;4.10;2.00;;;;;;;;;;5099249;27;20054;-66
2023/08/15 14:12:16;;;;;;;4.30;2.38;;;;;;;;;;5113550;27;20084;-65
2023/08/15 14:14:42;;;;;;;5.05;1.98;;;;;;;;;;5123133;27;20047;-65
2023/08/15 14:17:08;;;;;;;5.75;2.30;;;;;;;;;;5133464;27;20047;-67
2023/08/15 14:19:34;;;;;;;3.35;2.63;;;;;;;;;;5133170;27;20058;-65
2023/08/15 14:22:00;;;;;;;4.70;1.90;;;;;;;;;;5131554;27;20579;-66
2023/08/15 14:24:26;;;;;;;3.95;1.90;;;;;;;;;;5110906;27;20489;-65
2023/08/15 14:26:52;;;;;;;3.17;2.10;;;;;;;;;;5109248;27;20062;-65